Time;durP1;ratioP1;P1;durP2;ratioP2;P2;SDS_P1;SDS_P2;PMS_P1;PMS_P2;Temp;Humidity;BMP_temperature;BMP_pressure;BME280_temperature;BME280_humidity;BME280_pressure;Samples;Min_cycle;Max_cycle;Signal;HPM_P1;HPM_P2
2022/01/14 00:02:13;;;;;;;12.55;7.70;;;;;;;0.73;100.00;102520.22;5053411;27;20043;-72
2022/01/14 00:04:39;;;;;;;13.50;7.63;;;;;;;0.73;100.00;102522.97;5082846;28;20035;-72
2022/01/14 00:07:04;;;;;;;12.30;7.68;;;;;;;0.74;100.00;102526.56;5071910;28;20044;-72
2022/01/14 00:09:31;;;;;;;12.93;7.18;;;;;;;0.72;100.00;102528.59;5093369;27;20102;-72
2022/01/14 00:11:58;;;;;;;13.82;8.00;;;;;;;0.74;100.00;102526.56;5073647;27;20452;-72
2022/01/14 00:17:06;;;;;;;13.07;7.95;;;;;;;0.70;100.00;102522.44;5058721;28;20042;-72
2022/01/14 00:19:32;;;;;;;13.30;8.23;;;;;;;0.71;100.00;102510.50;5115504;27;20478;-72
2022/01/14 00:22:01;;;;;;;13.90;8.23;;;;;;;0.66;100.00;102511.88;5093357;27;20072;-72
2022/01/14 00:31:37;;;;;;;12.52;7.68;;;;;;;0.69;100.00;102507.09;5066990;28;20085;-72
2022/01/14 00:32:53;;;;;;;14.27;7.90;;;;;;;0.66;100.00;102503.69;5104676;28;20060;-72
2022/01/14 00:35:18;;;;;;;13.98;7.47;;;;;;;0.66;100.00;102497.34;5067015;28;20035;-72
2022/01/14 00:37:44;;;;;;;14.88;8.60;;;;;;;0.65;100.00;102499.25;5083075;28;20145;-72
2022/01/14 00:40:10;;;;;;;15.45;8.43;;;;;;;0.66;100.00;102497.34;5097193;28;20090;-74
2022/01/14 00:42:36;;;;;;;13.88;7.90;;;;;;;0.64;100.00;102497.56;5096563;28;20463;-72
2022/01/14 00:45:01;;;;;;;13.73;8.32;;;;;;;0.64;100.00;102493.94;5084530;28;20035;-72
2022/01/14 00:47:27;;;;;;;13.20;7.90;;;;;;;0.61;100.00;102495.19;5048506;28;20032;-72
2022/01/14 00:49:52;;;;;;;13.30;7.68;;;;;;;0.62;100.00;102499.59;5036492;28;20720;-72
2022/01/14 00:52:18;;;;;;;13.48;7.32;;;;;;;0.61;100.00;102500.66;5088077;28;20028;-74
2022/01/14 00:54:43;;;;;;;11.30;7.35;;;;;;;0.61;100.00;102494.31;5098256;28;20023;-72
2022/01/14 00:59:34;;;;;;;12.30;7.57;;;;;;;0.54;100.00;102487.88;5118077;27;20043;-74
2022/01/14 01:02:01;;;;;;;15.25;7.68;;;;;;;0.53;100.00;102489.75;5098317;27;20028;-72
2022/01/14 01:04:34;;;;;;;13.68;7.82;;;;;;;0.51;100.00;102482.75;5081675;28;20039;-72
2022/01/14 01:07:01;;;;;;;15.60;8.50;;;;;;;0.48;100.00;102483.13;5083320;28;20023;-72
2022/01/14 01:09:29;;;;;;;13.68;8.77;;;;;;;0.47;100.00;102484.13;5097411;28;20020;-72
2022/01/14 01:12:08;;;;;;;14.98;8.85;;;;;;;0.44;100.00;102482.59;5103869;28;20023;-72
2022/01/14 01:14:42;;;;;;;14.82;8.95;;;;;;;0.42;100.00;102481.97;5088525;28;20036;-72
2022/01/14 01:17:08;;;;;;;16.33;8.95;;;;;;;0.41;100.00;102483.81;5079682;27;20434;-72
2022/01/14 01:19:34;;;;;;;16.25;9.45;;;;;;;0.39;100.00;102485.91;5089118;27;20031;-72
2022/01/14 01:21:59;;;;;;;17.35;10.05;;;;;;;0.36;100.00;102479.91;5113419;27;20055;-72
2022/01/14 01:24:25;;;;;;;20.80;11.05;;;;;;;0.34;100.00;102477.38;5114707;28;20032;-72
2022/01/14 01:26:51;;;;;;;18.98;11.32;;;;;;;0.32;100.00;102473.13;5082691;28;20494;-72
2022/01/14 01:30:13;;;;;;;20.60;11.50;;;;;;;0.32;100.00;102481.31;5081403;28;20520;-72
2022/01/14 01:32:03;;;;;;;20.50;12.13;;;;;;;0.32;100.00;102473.13;5095445;27;20052;-72
2022/01/14 01:34:29;;;;;;;20.25;11.27;;;;;;;0.32;100.00;102468.50;5119345;27;20031;-72
2022/01/14 01:36:56;;;;;;;25.70;12.90;;;;;;;0.31;100.00;102471.41;5111796;28;20030;-72
2022/01/14 01:39:23;;;;;;;24.38;13.27;;;;;;;0.29;100.00;102474.31;5103965;27;20044;-72
2022/01/14 01:41:50;;;;;;;25.67;12.88;;;;;;;0.28;100.00;102467.16;5122969;27;20032;-72
2022/01/14 01:44:17;;;;;;;23.27;12.63;;;;;;;0.29;100.00;102473.47;5135040;27;20058;-72
2022/01/14 01:46:45;;;;;;;24.98;12.93;;;;;;;0.30;100.00;102470.53;5104116;27;20035;-72
2022/01/14 01:49:11;;;;;;;24.00;13.00;;;;;;;0.30;100.00;102472.44;5146077;27;20026;-72
2022/01/14 01:51:36;;;;;;;24.33;13.18;;;;;;;0.32;100.00;102475.84;5116073;27;20026;-72
2022/01/14 01:54:02;;;;;;;22.83;12.98;;;;;;;0.32;100.00;102482.16;5101177;27;20059;-72
2022/01/14 01:56:27;;;;;;;26.35;13.93;;;;;;;0.33;100.00;102477.53;5100288;27;20455;-72
2022/01/14 01:58:56;;;;;;;23.83;12.77;;;;;;;0.33;100.00;102472.91;5098040;27;20031;-72
2022/01/14 02:01:22;;;;;;;25.05;12.60;;;;;;;0.33;100.00;102481.13;5113517;27;20482;-73
2022/01/14 02:03:47;;;;;;;24.38;12.98;;;;;;;0.36;100.00;102485.38;5107616;27;20131;-72
2022/01/14 02:06:12;;;;;;;24.98;13.50;;;;;;;0.33;100.00;102483.00;5102562;27;20089;-72
2022/01/14 02:08:38;;;;;;;23.65;12.05;;;;;;;0.34;100.00;102482.84;5101036;27;20035;-72
2022/01/14 02:11:03;;;;;;;25.48;13.02;;;;;;;0.31;100.00;102475.00;5091593;27;20045;-72
2022/01/14 02:13:31;;;;;;;22.63;12.48;;;;;;;0.30;100.00;102472.44;5097924;28;20063;-72
2022/01/14 02:23:46;;;;;;;22.25;12.32;;;;;;;0.25;100.00;102462.03;5101424;27;20471;-72
2022/01/14 02:26:12;;;;;;;23.25;12.00;;;;;;;0.23;100.00;102458.63;5116474;27;20097;-72
2022/01/14 02:28:39;;;;;;;24.95;13.32;;;;;;;0.20;100.00;102448.91;5117200;27;20025;-72
2022/01/14 02:31:05;;;;;;;23.98;13.13;;;;;;;0.19;100.00;102458.13;5100356;27;20078;-72
2022/01/14 02:33:30;;;;;;;21.70;13.23;;;;;;;0.13;100.00;102458.84;5071847;28;20110;-72
2022/01/14 02:35:56;;;;;;;24.88;12.75;;;;;;;0.16;100.00;102458.47;5095293;27;20036;-72
2022/01/14 02:38:21;;;;;;;23.85;13.30;;;;;;;0.11;100.00;102450.00;5098229;28;20031;-72
2022/01/14 02:40:47;;;;;;;24.58;13.70;;;;;;;0.11;100.00;102443.66;5085677;28;20031;-72
2022/01/14 02:43:14;;;;;;;25.27;12.50;;;;;;;0.12;100.00;102446.22;5062838;27;20544;-72
2022/01/14 02:45:49;;;;;;;24.50;13.15;;;;;;;0.10;100.00;102445.53;5100470;28;20047;-72
2022/01/14 02:48:14;;;;;;;24.15;13.02;;;;;;;0.11;100.00;102438.19;5083898;28;20032;-72
2022/01/14 02:50:55;;;;;;;24.63;13.38;;;;;;;0.09;100.00;102437.53;5112361;28;20035;-72
2022/01/14 02:55:54;;;;;;;22.42;12.77;;;;;;;0.01;100.00;102427.47;5095905;27;20045;-72
2022/01/14 02:58:21;;;;;;;23.60;13.20;;;;;;;0.02;100.00;102428.31;5081470;28;20031;-72
2022/01/14 03:00:46;;;;;;;23.83;12.93;;;;;;;-0.02;100.00;102434.16;5099707;28;20038;-72
2022/01/14 03:03:12;;;;;;;24.75;13.55;;;;;;;-0.05;100.00;102430.94;5098165;28;20023;-72
2022/01/14 03:05:37;;;;;;;23.90;13.10;;;;;;;-0.04;100.00;102427.16;5116402;28;20024;-72
2022/01/14 03:08:03;;;;;;;21.42;11.85;;;;;;;-0.06;100.00;102429.22;5114371;28;20043;-72
2022/01/14 03:10:28;;;;;;;23.08;12.75;;;;;;;-0.11;100.00;102420.69;5111485;28;20028;-72
2022/01/14 03:12:54;;;;;;;24.60;13.50;;;;;;;-0.10;100.00;102423.25;5112840;27;20026;-72
2022/01/14 03:15:20;;;;;;;22.98;12.15;;;;;;;-0.15;100.00;102422.94;5080574;27;20035;-72
2022/01/14 03:17:45;;;;;;;24.08;13.65;;;;;;;-0.14;100.00;102431.97;5084008;27;20030;-72
2022/01/14 03:20:34;;;;;;;23.95;12.35;;;;;;;-0.20;100.00;102429.94;5073427;27;20052;-72
2022/01/14 03:23:03;;;;;;;25.13;12.68;;;;;;;-0.23;100.00;102432.00;5108720;27;20027;-72
2022/01/14 03:28:12;;;;;;;25.73;13.23;;;;;;;-0.27;100.00;102427.94;5078482;28;20028;-72
2022/01/14 03:30:38;;;;;;;26.10;13.45;;;;;;;-0.29;100.00;102431.84;5090306;28;20024;-72
2022/01/14 03:33:03;;;;;;;24.15;13.13;;;;;;;-0.32;100.00;102422.13;5075973;28;20043;-72
2022/01/14 03:35:28;;;;;;;26.88;13.95;;;;;;;-0.34;100.00;102429.63;5096320;28;20035;-72
2022/01/14 03:37:55;;;;;;;26.45;14.15;;;;;;;-0.39;100.00;102440.25;5098835;28;20035;-72
2022/01/14 03:40:21;;;;;;;24.38;13.25;;;;;;;-0.40;100.00;102432.22;5128558;28;20396;-72
2022/01/14 03:42:46;;;;;;;25.98;13.65;;;;;;;-0.45;100.00;102427.28;5113477;28;20027;-72
2022/01/14 03:45:12;;;;;;;23.40;13.07;;;;;;;-0.48;100.00;102417.56;5098386;28;20387;-72
2022/01/14 03:47:38;;;;;;;24.25;13.32;;;;;;;-0.50;100.00;102418.78;5096864;27;20031;-72
2022/01/14 03:50:03;;;;;;;24.42;13.75;;;;;;;-0.49;100.00;102415.03;5105969;27;20499;-72
2022/01/14 03:52:31;;;;;;;24.85;13.68;;;;;;;-0.51;100.00;102417.06;5095521;27;20065;-72
2022/01/14 03:54:56;;;;;;;23.45;13.27;;;;;;;-0.57;100.00;102413.16;5071203;27;20023;-72
2022/01/14 03:57:21;;;;;;;23.60;13.73;;;;;;;-0.59;100.00;102415.19;5070141;27;20031;-72
2022/01/14 03:59:47;;;;;;;25.40;13.75;;;;;;;-0.60;100.00;102404.47;5119144;27;20037;-72
2022/01/14 04:02:13;;;;;;;27.45;14.23;;;;;;;-0.64;100.00;102409.44;5105014;27;20114;-72
2022/01/14 04:04:38;;;;;;;24.40;13.48;;;;;;;-0.65;100.00;102409.59;5082422;27;20027;-72
2022/01/14 04:07:04;;;;;;;26.23;13.70;;;;;;;-0.71;100.00;102413.88;5103922;27;20045;-72
2022/01/14 04:09:35;;;;;;;28.13;13.95;;;;;;;-0.72;100.00;102421.22;5071094;27;20025;-72
2022/01/14 04:12:01;;;;;;;30.52;15.55;;;;;;;-0.74;100.00;102417.78;5134539;27;20057;-72
2022/01/14 04:16:53;;;;;;;25.65;13.68;;;;;;;-0.80;100.00;102421.22;5097878;27;20031;-72
2022/01/14 04:19:18;;;;;;;30.00;15.20;;;;;;;-0.84;100.00;102417.13;5096735;27;20113;-72
2022/01/14 04:21:44;;;;;;;39.67;17.35;;;;;;;-0.88;100.00;102414.91;5105488;27;20026;-72
2022/01/14 04:24:09;;;;;;;37.75;18.23;;;;;;;-0.93;100.00;102412.69;5095517;27;20118;-72
2022/01/14 04:26:35;;;;;;;34.05;16.67;;;;;;;-0.92;100.00;102408.94;5077227;27;20041;-72
2022/01/14 04:29:00;;;;;;;36.22;16.88;;;;;;;-0.96;100.00;102408.44;5098070;27;20016;-72
2022/01/14 04:31:26;;;;;;;36.00;16.65;;;;;;;-0.99;100.00;102403.31;5080939;28;20078;-72
2022/01/14 04:33:51;;;;;;;31.33;16.35;;;;;;;-1.03;100.00;102409.28;5083938;28;20028;-72
2022/01/14 04:36:17;;;;;;;35.30;15.88;;;;;;;-1.04;100.00;102399.41;5050640;27;20027;-72
2022/01/14 04:38:42;;;;;;;33.75;16.30;;;;;;;-1.05;100.00;102398.56;5079484;27;20031;-72
2022/01/14 04:41:09;;;;;;;30.42;15.23;;;;;;;-1.12;100.00;102397.53;5055279;27;20035;-72
2022/01/14 04:43:35;;;;;;;33.75;17.05;;;;;;;-1.14;100.00;102400.44;5084387;27;20027;-72
2022/01/14 04:48:26;;;;;;;35.35;16.95;;;;;;;-1.21;100.00;102380.31;5082014;28;20019;-72
2022/01/14 04:50:52;;;;;;;32.00;16.20;;;;;;;-1.23;100.00;102379.63;5085410;27;20028;-72
2022/01/14 04:53:18;;;;;;;33.58;17.08;;;;;;;-1.27;100.00;102382.88;5069679;28;20019;-72
2022/01/14 04:55:43;;;;;;;41.83;20.38;;;;;;;-1.29;100.00;102385.78;5082243;28;20032;-72
2022/01/14 04:58:09;;;;;;;43.17;21.80;;;;;;;-1.29;100.00;102374.03;5041155;28;20019;-72
2022/01/14 05:00:36;;;;;;;43.65;21.50;;;;;;;-1.31;100.00;102370.59;5108186;27;20048;-72
2022/01/14 05:03:01;;;;;;;42.85;21.25;;;;;;;-1.32;100.00;102368.91;5054849;28;20121;-72
2022/01/14 05:05:30;;;;;;;41.17;20.83;;;;;;;-1.35;100.00;102365.50;5063344;28;20043;-72
2022/01/14 05:07:56;;;;;;;39.97;20.25;;;;;;;-1.36;100.00;102373.84;5114241;27;20042;-72
2022/01/14 05:12:52;;;;;;;42.85;21.48;;;;;;;-1.37;100.00;102374.84;5067218;28;20032;-72
2022/01/14 05:15:18;;;;;;;40.83;20.25;;;;;;;-1.36;100.00;102360.22;5094227;27;20049;-72
2022/01/14 05:17:44;;;;;;;43.97;20.75;;;;;;;-1.40;100.00;102364.31;5069373;28;20042;-72
2022/01/14 05:20:10;;;;;;;42.13;20.20;;;;;;;-1.39;100.00;102368.75;5065464;27;20114;-72
2022/01/14 05:22:36;;;;;;;41.70;19.33;;;;;;;-1.44;100.00;102362.94;5064868;28;20016;-72
2022/01/14 05:25:02;;;;;;;40.58;19.80;;;;;;;-1.44;100.00;102365.69;5073133;28;20020;-73
2022/01/14 05:27:27;;;;;;;39.30;20.20;;;;;;;-1.42;100.00;102367.22;5050982;27;20404;-72
2022/01/14 05:29:53;;;;;;;40.25;18.95;;;;;;;-1.45;100.00;102366.69;5059293;27;20028;-72
2022/01/14 05:32:20;;;;;;;40.45;19.90;;;;;;;-1.44;100.00;102376.56;5113742;27;20047;-72
2022/01/14 05:34:46;;;;;;;41.78;20.55;;;;;;;-1.45;100.00;102375.72;5084950;28;20646;-72
2022/01/14 05:37:12;;;;;;;43.55;20.23;;;;;;;-1.48;100.00;102386.09;5066683;28;20149;-72
2022/01/14 05:39:38;;;;;;;41.72;19.48;;;;;;;-1.50;100.00;102389.00;5081917;27;20035;-72
2022/01/14 05:42:03;;;;;;;42.13;19.40;;;;;;;-1.52;100.00;102388.31;5067538;28;20031;-73
2022/01/14 05:44:29;;;;;;;40.60;19.75;;;;;;;-1.53;100.00;102391.19;5082699;27;20313;-72
2022/01/14 05:46:55;;;;;;;41.35;19.48;;;;;;;-1.52;100.00;102384.75;5078854;27;20024;-72
2022/01/14 05:49:21;;;;;;;40.45;18.75;;;;;;;-1.56;100.00;102384.25;5071488;27;20035;-72
2022/01/14 05:51:47;;;;;;;40.30;19.15;;;;;;;-1.59;100.00;102384.53;5053838;28;20380;-72
2022/01/14 05:54:13;;;;;;;38.78;17.98;;;;;;;-1.61;100.00;102378.44;5098913;27;20031;-72
2022/01/14 05:56:38;;;;;;;37.92;18.48;;;;;;;-1.58;100.00;102381.66;5119188;27;20108;-72
2022/01/14 05:59:04;;;;;;;35.85;18.58;;;;;;;-1.66;100.00;102373.47;5098546;27;20029;-72
2022/01/14 06:01:30;;;;;;;40.10;20.45;;;;;;;-1.63;100.00;102380.47;5065153;28;20070;-72
2022/01/14 06:03:59;;;;;;;39.00;19.40;;;;;;;-1.69;100.00;102378.41;5051532;27;20046;-72
2022/01/14 06:06:25;;;;;;;36.17;18.55;;;;;;;-1.67;100.00;102365.47;5066104;27;20027;-72
2022/01/14 06:08:51;;;;;;;40.15;19.08;;;;;;;-1.73;100.00;102366.13;5046530;28;20441;-71
2022/01/14 06:11:17;;;;;;;39.08;19.27;;;;;;;-1.70;100.00;102368.53;5074740;27;20015;-72
2022/01/14 06:13:42;;;;;;;39.70;19.85;;;;;;;-1.70;100.00;102355.78;5093169;28;20019;-72
2022/01/14 06:16:08;;;;;;;44.35;19.98;;;;;;;-1.75;100.00;102358.16;5058940;27;20065;-72
2022/01/14 06:18:34;;;;;;;39.20;19.20;;;;;;;-1.78;100.00;102353.03;5064381;28;20034;-72
2022/01/14 06:20:59;;;;;;;40.75;19.63;;;;;;;-1.79;100.00;102354.03;5083982;28;20043;-72
2022/01/14 06:23:25;;;;;;;41.80;20.40;;;;;;;-1.79;100.00;102351.31;5072971;28;20035;-72
2022/01/14 06:25:50;;;;;;;39.67;18.27;;;;;;;-1.85;100.00;102349.25;5068818;28;20105;-72
2022/01/14 06:28:16;;;;;;;37.25;18.92;;;;;;;-1.86;100.00;102350.28;5095973;28;20035;-72
2022/01/14 06:30:41;;;;;;;37.70;18.55;;;;;;;-1.87;100.00;102362.19;5076051;28;20031;-72
2022/01/14 06:33:07;;;;;;;41.05;20.13;;;;;;;-1.89;100.00;102356.94;5078147;28;20051;-72
2022/01/14 06:35:32;;;;;;;38.13;18.67;;;;;;;-1.88;100.00;102360.50;5058004;28;20477;-72
2022/01/14 06:37:59;;;;;;;37.45;19.17;;;;;;;-1.89;100.00;102367.81;5058828;27;20479;-72
2022/01/14 06:40:26;;;;;;;35.40;18.38;;;;;;;-1.91;100.00;102372.56;5060815;28;20024;-72
2022/01/14 06:42:51;;;;;;;35.03;18.38;;;;;;;-1.93;100.00;102376.47;5050152;28;20126;-72
2022/01/14 06:45:17;;;;;;;36.33;18.63;;;;;;;-1.96;100.00;102382.25;5046289;28;20071;-72
2022/01/14 06:47:42;;;;;;;43.22;20.52;;;;;;;-1.96;100.00;102376.81;5062595;28;20032;-72
2022/01/14 06:50:08;;;;;;;36.20;19.58;;;;;;;-1.96;100.00;102380.38;5064838;28;20024;-72
2022/01/14 06:52:34;;;;;;;42.78;20.38;;;;;;;-1.97;100.00;102373.25;5061120;28;20399;-72
2022/01/14 06:54:59;;;;;;;40.00;19.77;;;;;;;-1.99;100.00;102374.44;5044800;28;20034;-72
2022/01/14 06:57:25;;;;;;;41.30;19.55;;;;;;;-1.99;100.00;102363.53;5069358;28;20029;-72
2022/01/14 06:59:50;;;;;;;41.08;19.52;;;;;;;-2.04;100.00;102367.59;5060862;28;20036;-72
2022/01/14 07:02:16;;;;;;;41.38;19.48;;;;;;;-2.05;100.00;102354.16;5036790;28;20023;-72
2022/01/14 07:04:41;;;;;;;40.65;19.65;;;;;;;-2.06;100.00;102353.31;5125363;28;20032;-72
2022/01/14 07:07:07;;;;;;;39.58;19.15;;;;;;;-2.06;100.00;102358.75;5096351;28;20562;-72
2022/01/14 07:09:34;;;;;;;36.03;18.73;;;;;;;-2.05;100.00;102363.16;5075449;28;20024;-72
2022/01/14 07:12:02;;;;;;;37.45;19.35;;;;;;;-2.08;100.00;102363.50;5063170;28;20032;-72
2022/01/14 07:14:29;;;;;;;37.95;18.52;;;;;;;-2.02;100.00;102362.84;5082511;28;20070;-72
2022/01/14 07:16:55;;;;;;;37.90;18.92;;;;;;;-2.02;100.00;102362.84;5062113;28;20582;-72
2022/01/14 07:19:21;;;;;;;36.38;18.45;;;;;;;-2.05;100.00;102352.28;5110622;28;20123;-72
2022/01/14 07:21:47;;;;;;;36.95;19.58;;;;;;;-2.08;100.00;102352.63;5105120;28;20086;-71
2022/01/14 07:24:13;;;;;;;42.17;19.75;;;;;;;-2.08;100.00;102360.78;5115941;27;20475;-69
2022/01/14 07:26:42;;;;;;;42.15;19.25;;;;;;;-2.12;100.00;102355.81;5121510;27;20024;-69
2022/01/14 07:29:07;;;;;;;39.25;19.67;;;;;;;-2.12;100.00;102361.25;5110295;28;20059;-69
2022/01/14 07:31:33;;;;;;;41.50;18.70;;;;;;;-2.15;100.00;102361.59;5125519;27;20051;-70
2022/01/14 07:33:59;;;;;;;38.42;18.20;;;;;;;-2.16;100.00;102365.34;5123380;27;20495;-70
2022/01/14 07:36:24;;;;;;;39.75;19.52;;;;;;;-2.16;100.00;102359.91;5135864;27;20031;-70
2022/01/14 07:38:50;;;;;;;38.30;18.25;;;;;;;-2.20;100.00;102356.66;5084029;28;20063;-70
2022/01/14 07:41:15;;;;;;;38.47;18.50;;;;;;;-2.18;100.00;102362.78;5072167;28;20062;-70
2022/01/14 07:43:46;;;;;;;37.58;17.88;;;;;;;-2.18;100.00;102357.34;5076283;27;20036;-70
2022/01/14 07:46:11;;;;;;;38.08;17.35;;;;;;;-2.18;100.00;102356.50;5066416;28;20080;-70
2022/01/14 07:48:37;;;;;;;39.67;19.02;;;;;;;-2.21;100.00;102357.66;5055825;27;20023;-70
2022/01/14 07:51:02;;;;;;;38.65;18.58;;;;;;;-2.23;100.00;102353.41;5064083;27;20015;-71
2022/01/14 07:53:27;;;;;;;36.60;17.83;;;;;;;-2.25;100.00;102365.31;5063256;28;20761;-70
2022/01/14 07:55:53;;;;;;;37.13;17.92;;;;;;;-2.27;100.00;102363.78;5126102;27;20032;-71
2022/01/14 07:58:19;;;;;;;36.42;17.67;;;;;;;-2.26;100.00;102369.06;5061731;28;20062;-71
2022/01/14 08:00:44;;;;;;;36.08;18.38;;;;;;;-2.31;100.00;102371.44;5082584;28;20048;-70
2022/01/14 08:03:10;;;;;;;34.40;18.02;;;;;;;-2.29;100.00;102377.53;5051214;27;20050;-71
2022/01/14 08:05:35;;;;;;;40.08;18.75;;;;;;;-2.29;100.00;102376.69;5079141;27;20386;-71
2022/01/14 08:08:07;;;;;;;34.60;17.85;;;;;;;-2.30;100.00;102369.56;5078166;27;20047;-71
2022/01/14 08:10:33;;;;;;;33.95;18.10;;;;;;;-2.29;100.00;102373.97;5088270;27;20021;-70
2022/01/14 08:12:58;;;;;;;35.10;17.27;;;;;;;-2.26;100.00;102381.81;5086809;27;20030;-71
2022/01/14 08:15:24;;;;;;;32.50;17.25;;;;;;;-2.27;100.00;102377.38;5081748;27;20042;-71
2022/01/14 08:17:49;;;;;;;39.25;18.30;;;;;;;-2.29;100.00;102366.66;5100008;28;20076;-71
2022/01/14 08:20:15;;;;;;;38.83;17.85;;;;;;;-2.28;100.00;102371.09;5092979;28;20099;-70
2022/01/14 08:22:41;;;;;;;36.55;17.90;;;;;;;-2.25;100.00;102370.75;5089500;27;20031;-70
2022/01/14 08:25:07;;;;;;;37.50;17.65;;;;;;;-2.21;100.00;102365.84;5069287;28;20024;-71
2022/01/14 08:27:32;;;;;;;36.60;18.23;;;;;;;-2.19;100.00;102361.09;5088738;28;20499;-70
2022/01/14 08:29:58;;;;;;;37.35;17.98;;;;;;;-2.17;100.00;102361.78;5067669;28;20463;-71
2022/01/14 08:32:23;;;;;;;38.03;18.83;;;;;;;-2.14;100.00;102357.88;5091954;28;20048;-71
2022/01/14 08:34:49;;;;;;;37.80;18.15;;;;;;;-2.11;100.00;102363.00;5072108;27;20031;-71
2022/01/14 08:37:15;;;;;;;38.35;18.25;;;;;;;-2.04;100.00;102359.41;5088560;28;20047;-71
2022/01/14 08:39:41;;;;;;;37.42;18.27;;;;;;;-2.00;100.00;102361.84;5113576;27;20031;-70
2022/01/14 08:42:11;;;;;;;33.42;18.13;;;;;;;-1.98;100.00;102368.78;5080033;28;20032;-70
2022/01/14 08:44:37;;;;;;;40.42;19.67;;;;;;;-1.89;100.00;102365.09;5064982;28;20062;-71
2022/01/14 08:47:07;;;;;;;38.20;20.20;;;;;;;-1.87;100.00;102368.47;5081984;28;20023;-71
2022/01/14 08:49:33;;;;;;;38.20;19.45;;;;;;;-1.74;100.00;102370.72;5099094;28;20028;-71
2022/01/14 08:51:59;;;;;;;42.53;20.52;;;;;;;-1.64;100.00;102376.06;5086211;28;20083;-71
2022/01/14 08:54:24;;;;;;;41.08;20.23;;;;;;;-1.54;100.00;102379.44;5100243;27;20032;-71
2022/01/14 08:56:50;;;;;;;41.65;20.88;;;;;;;-1.46;100.00;102379.47;5095901;28;20044;-71
2022/01/14 08:59:16;;;;;;;38.92;20.20;;;;;;;-1.34;100.00;102374.53;5085787;28;20023;-71
2022/01/14 09:01:42;;;;;;;37.20;18.55;;;;;;;-1.23;100.00;102370.59;5082021;28;20036;-71
2022/01/14 09:04:08;;;;;;;42.17;20.33;;;;;;;-1.12;100.00;102371.09;5097561;28;20060;-71
2022/01/14 09:06:33;;;;;;;44.95;22.35;;;;;;;-1.01;100.00;102372.63;5072615;28;20113;-71
2022/01/14 09:08:59;;;;;;;42.97;20.77;;;;;;;-0.91;100.00;102362.41;5061868;28;20027;-71
2022/01/14 09:11:24;;;;;;;44.33;20.92;;;;;;;-0.80;100.00;102363.06;5100342;28;20076;-69
2022/01/14 09:13:50;;;;;;;44.75;22.00;;;;;;;-0.68;100.00;102353.47;5089874;28;20035;-70
2022/01/14 09:16:17;;;;;;;49.20;23.02;;;;;;;-0.56;100.00;102359.41;5060339;27;20088;-70
2022/01/14 09:18:43;;;;;;;44.05;22.05;;;;;;;-0.48;100.00;102368.44;5097127;28;20028;-69
2022/01/14 09:21:08;;;;;;;43.88;22.15;;;;;;;-0.36;100.00;102362.59;5067102;28;20050;-70
2022/01/14 09:23:34;;;;;;;40.53;22.05;;;;;;;-0.28;100.00;102360.69;5081782;27;20037;-68
2022/01/14 09:26:00;;;;;;;41.60;22.30;;;;;;;-0.20;100.00;102364.41;5074838;28;20028;-69
2022/01/14 09:28:26;;;;;;;39.60;20.23;;;;;;;-0.15;100.00;102359.25;5081238;28;20502;-68
2022/01/14 09:30:52;;;;;;;45.58;22.27;;;;;;;-0.09;100.00;102361.28;5088921;27;20028;-70
2022/01/14 09:33:18;;;;;;;52.65;25.40;;;;;;;-0.07;100.00;102372.88;5094352;28;20073;-70
2022/01/14 09:35:45;;;;;;;42.60;21.90;;;;;;;-0.03;100.00;102360.56;5089298;27;20098;-70
2022/01/14 09:38:10;;;;;;;42.60;22.60;;;;;;;0.01;100.00;102366.53;5083111;27;20479;-70
2022/01/14 09:40:36;;;;;;;46.67;24.30;;;;;;;0.04;100.00;102361.56;5094965;27;20028;-70
2022/01/14 09:43:02;;;;;;;46.53;23.35;;;;;;;0.07;100.00;102363.94;5068573;27;20023;-70
2022/01/14 09:45:31;;;;;;;47.65;24.65;;;;;;;0.10;100.00;102358.09;5100444;28;20059;-70
2022/01/14 09:47:56;;;;;;;48.33;24.70;;;;;;;0.12;100.00;102353.31;5097636;27;20023;-70
2022/01/14 09:50:22;;;;;;;53.28;25.42;;;;;;;0.16;100.00;102351.06;5083115;27;20548;-70
2022/01/14 09:52:51;;;;;;;53.47;26.08;;;;;;;0.19;100.00;102350.69;5067045;28;20022;-70
2022/01/14 09:55:20;;;;;;;59.15;26.58;;;;;;;0.20;100.00;102345.06;5094550;27;20060;-70
2022/01/14 09:57:46;;;;;;;56.42;26.45;;;;;;;0.22;100.00;102348.47;5086327;27;20031;-70
2022/01/14 10:00:12;;;;;;;61.03;32.60;;;;;;;0.25;100.00;102352.72;5088322;28;20394;-70
2022/01/14 10:02:38;;;;;;;;;;;;;;;0.27;100.00;102356.13;5079904;27;20477;-69
2022/01/14 10:05:05;;;;;;;58.00;29.02;;;;;;;0.29;100.00;102364.16;5129130;27;19916;-69
2022/01/14 10:07:32;;;;;;;63.05;29.60;;;;;;;0.32;100.00;102352.84;5083618;27;20023;-69
2022/01/14 10:09:59;;;;;;;59.80;29.30;;;;;;;0.34;100.00;102359.84;5135456;27;20075;-69
2022/01/14 10:12:26;;;;;;;63.13;29.05;;;;;;;0.38;100.00;102360.31;5091551;27;20042;-69
2022/01/14 10:15:08;;;;;;;59.85;28.48;;;;;;;0.41;100.00;102363.53;5094411;27;20449;-69
2022/01/14 10:17:44;;;;;;;59.75;29.00;;;;;;;0.46;100.00;102359.41;5098929;27;20084;-69
2022/01/14 10:20:11;;;;;;;58.25;28.92;;;;;;;0.45;100.00;102361.31;5099938;27;20114;-69
2022/01/14 10:22:58;;;;;;;63.03;28.63;;;;;;;0.48;100.00;102363.69;5092881;28;20027;-71
2022/01/14 10:25:23;;;;;;;58.55;28.50;;;;;;;0.50;100.00;102369.78;5077597;27;20585;-69
2022/01/14 10:27:51;;;;;;;60.17;29.48;;;;;;;0.54;100.00;102373.03;5099624;27;20039;-73
2022/01/14 10:30:18;;;;;;;54.05;27.95;;;;;;;0.58;100.00;102380.66;5081353;28;20024;-73
2022/01/14 10:32:55;;;;;;;57.67;27.85;;;;;;;0.62;100.00;102382.03;5098476;27;20095;-72
2022/01/14 10:35:21;;;;;;;61.53;28.88;;;;;;;0.66;100.00;102380.59;5106119;28;20034;-73
2022/01/14 10:37:47;;;;;;;58.50;27.83;;;;;;;0.69;100.00;102364.88;5113605;28;20050;-73
2022/01/14 10:40:16;;;;;;;57.80;28.27;;;;;;;0.73;100.00;102371.69;5082929;28;20557;-73
2022/01/14 10:42:42;;;;;;;58.60;29.63;;;;;;;0.77;100.00;102364.81;5115030;28;20057;-73
2022/01/14 10:45:22;;;;;;;56.38;28.45;;;;;;;0.82;100.00;102365.97;5113763;28;20063;-74
2022/01/14 10:47:57;;;;;;;57.38;28.45;;;;;;;0.85;100.00;102359.28;5108740;28;20057;-73
2022/01/14 10:50:43;;;;;;;56.47;28.33;;;;;;;0.88;100.00;102364.38;5127729;28;20023;-74
2022/01/14 10:53:25;;;;;;;56.30;27.95;;;;;;;0.93;100.00;102370.16;5111475;28;20027;-73
2022/01/14 10:55:52;;;;;;;56.42;28.40;;;;;;;0.98;100.00;102364.13;5126775;27;20027;-73
2022/01/14 10:58:25;;;;;;;52.65;26.80;;;;;;;1.01;100.00;102353.66;5113778;27;20023;-71
2022/01/14 11:01:13;;;;;;;57.63;28.27;;;;;;;1.05;100.00;102354.97;5120497;27;20027;-72
2022/01/14 11:03:46;;;;;;;55.17;26.77;;;;;;;1.09;100.00;102345.38;5121548;27;20063;-72
2022/01/14 11:06:34;;;;;;;55.63;27.83;;;;;;;1.14;100.00;102338.47;5131509;27;20102;-73
2022/01/14 11:09:05;;;;;;;58.22;28.38;;;;;;;1.19;100.00;102336.03;5090291;27;20050;-73
2022/01/14 11:11:35;;;;;;;51.60;27.60;;;;;;;1.23;100.00;102330.00;5098195;28;20080;-74
2022/01/14 11:14:00;;;;;;;58.63;27.92;;;;;;;1.26;100.00;102321.41;5114417;27;20023;-74
2022/01/14 11:16:26;;;;;;;52.97;26.52;;;;;;;1.31;100.00;102318.13;5117884;27;20030;-73
2022/01/14 11:18:52;;;;;;;56.55;27.77;;;;;;;1.35;100.00;102311.22;5116198;27;20023;-73
2022/01/14 11:24:04;;;;;;;55.20;26.65;;;;;;;1.40;100.00;102297.81;5111650;27;20480;-73
2022/01/14 11:26:34;;;;;;;54.30;27.77;;;;;;;1.42;100.00;102295.75;5135352;27;20059;-73
2022/01/14 11:29:16;;;;;;;58.00;28.52;;;;;;;1.38;100.00;102297.16;5101802;27;20038;-73
2022/01/14 11:31:42;;;;;;;54.28;28.35;;;;;;;1.38;100.00;102290.81;5117560;27;20078;-73
2022/01/14 11:34:11;;;;;;;54.83;28.05;;;;;;;1.39;100.00;102285.16;5129670;27;20039;-74
2022/01/14 11:37:02;;;;;;;56.88;28.17;;;;;;;1.38;100.00;102288.09;5086656;27;20034;-73
2022/01/14 11:39:32;;;;;;;54.55;27.35;;;;;;;1.38;100.00;102282.63;5102102;27;20092;-73
2022/01/14 11:41:58;;;;;;;53.50;27.40;;;;;;;1.37;100.00;102286.41;5116666;27;20472;-70